Time;durP1;ratioP1;P1;durP2;ratioP2;P2;SDS_P1;SDS_P2;PMS_P1;PMS_P2;Temp;Humidity;BMP_temperature;BMP_pressure;BME280_temperature;BME280_humidity;BME280_pressure;Samples;Min_cycle;Max_cycle;Signal;HPM_P1;HPM_P2
2021/08/10 00:02:03;;;;;;;2.53;0.75;;;20.50;66.00;;;;;;2349631;53;20952;-68
2021/08/10 00:04:33;;;;;;;1.77;0.70;;;20.40;65.90;;;;;;2327566;54;21478;-68
2021/08/10 00:06:59;;;;;;;2.90;0.70;;;20.40;66.00;;;;;;2572831;52;21779;-67
2021/08/10 00:09:26;;;;;;;3.30;1.17;;;20.40;66.00;;;;;;2340919;53;20959;-66
2021/08/10 00:11:55;;;;;;;1.95;0.82;;;20.40;66.10;;;;;;2382298;53;21045;-67
2021/08/10 00:14:21;;;;;;;3.60;0.90;;;20.40;66.20;;;;;;2383479;52;20962;-66
2021/08/10 00:16:48;;;;;;;2.25;0.80;;;20.30;66.20;;;;;;2371159;53;21009;-66
2021/08/10 00:19:17;;;;;;;2.08;0.82;;;20.30;66.30;;;;;;2343678;54;21034;-67
2021/08/10 00:21:44;;;;;;;1.95;0.75;;;20.30;66.30;;;;;;2576807;52;21508;-67
2021/08/10 00:24:10;;;;;;;1.85;0.80;;;20.30;66.30;;;;;;2349411;54;20942;-67
2021/08/10 00:26:37;;;;;;;2.47;0.77;;;20.30;66.40;;;;;;2422336;52;20888;-66
2021/08/10 00:29:03;;;;;;;1.77;0.80;;;20.30;67.20;;;;;;2342833;54;21324;-66
2021/08/10 00:31:30;;;;;;;4.28;1.00;;;20.30;66.50;;;;;;2575579;52;21008;-65
2021/08/10 00:33:57;;;;;;;1.67;0.80;;;20.20;66.50;;;;;;2339372;54;21016;-67
2021/08/10 00:36:24;;;;;;;1.80;0.80;;;20.20;66.60;;;;;;2579032;52;20998;-68
2021/08/10 00:38:50;;;;;;;2.17;0.88;;;20.20;66.60;;;;;;2337017;53;21038;-66
2021/08/10 00:41:17;;;;;;;3.00;0.93;;;20.20;66.70;;;;;;2320640;53;20958;-68
2021/08/10 00:43:52;;;;;;;2.50;1.02;;;20.20;66.80;;;;;;2338564;54;21790;-67
2021/08/10 00:46:18;;;;;;;2.55;0.80;;;20.20;66.40;;;;;;2340206;54;20990;-66
2021/08/10 00:48:44;;;;;;;3.20;1.00;;;20.10;66.80;;;;;;2344411;53;20991;-66
2021/08/10 00:51:11;;;;;;;1.90;0.90;;;20.20;66.90;;;;;;2342281;54;20954;-66
2021/08/10 00:53:38;;;;;;;2.12;0.80;;;20.20;67.00;;;;;;2586128;52;21027;-68
2021/08/10 00:56:04;;;;;;;2.35;0.98;;;20.10;66.90;;;;;;2331791;54;20992;-66
2021/08/10 00:58:31;;;;;;;2.15;0.90;;;20.10;67.00;;;;;;2408273;52;20986;-66
2021/08/10 01:00:58;;;;;;;3.25;1.00;;;20.10;67.00;;;;;;2543300;52;21905;-67
2021/08/10 01:03:25;;;;;;;3.22;0.90;;;20.10;67.00;;;;;;2475987;52;21594;-66
2021/08/10 01:05:51;;;;;;;1.62;0.60;;;20.10;67.10;;;;;;2338787;53;20952;-66
2021/08/10 01:09:07;;;;;;;1.73;0.70;;;20.10;67.10;;;;;;2347214;53;21030;-67
2021/08/10 01:12:06;;;;;;;2.28;0.70;;;20.10;66.20;;;;;;2519821;52;20957;-66
2021/08/10 01:15:03;;;;;;;1.98;0.80;;;20.10;66.40;;;;;;2533687;52;21030;-68
2021/08/10 01:18:21;;;;;;;2.40;0.70;;;20.10;66.30;;;;;;2325989;54;21011;-67
2021/08/10 01:21:33;;;;;;;1.85;0.70;;;20.00;66.40;;;;;;2547358;52;21043;-66
2021/08/10 01:24:16;;;;;;;2.58;0.90;;;19.90;65.80;;;;;;2338105;54;20998;-67
2021/08/10 01:29:48;;;;;;;1.90;0.80;;;19.90;66.40;;;;;;2583348;52;21319;-67
2021/08/10 01:32:14;;;;;;;1.33;0.60;;;19.90;66.00;;;;;;2349748;54;21136;-66
2021/08/10 01:34:45;;;;;;;3.15;0.70;;;19.80;66.80;;;;;;2588029;52;20944;-66
2021/08/10 01:37:17;;;;;;;1.85;0.77;;;19.70;66.90;;;;;;2415926;52;21090;-67
2021/08/10 01:39:44;;;;;;;2.03;0.73;;;19.70;66.80;;;;;;2445080;52;21897;-66
2021/08/10 01:42:11;;;;;;;1.80;0.82;;;19.60;66.80;;;;;;2346681;54;21270;-66
2021/08/10 01:44:38;;;;;;;3.72;0.80;;;19.60;66.90;;;;;;2576431;52;21038;-68
2021/08/10 01:47:07;;;;;;;1.73;0.70;;;19.60;67.00;;;;;;2326793;54;21018;-67
2021/08/10 01:49:33;;;;;;;2.12;0.82;;;19.50;67.10;;;;;;2585918;52;21381;-67
2021/08/10 01:52:00;;;;;;;2.92;0.77;;;19.50;67.10;;;;;;2344563;53;21005;-68
2021/08/10 01:54:27;;;;;;;3.20;0.80;;;19.40;67.10;;;;;;2582464;52;21046;-68
2021/08/10 01:56:54;;;;;;;1.98;0.80;;;19.40;67.20;;;;;;2350544;54;20933;-67
2021/08/10 01:59:20;;;;;;;2.58;0.88;;;19.40;67.20;;;;;;2348569;53;20938;-66
2021/08/10 02:01:48;;;;;;;1.83;0.77;;;19.30;67.00;;;;;;2466572;52;20941;-66
2021/08/10 02:04:18;;;;;;;3.12;1.10;;;19.30;67.10;;;;;;2586194;52;21071;-68
2021/08/10 02:06:45;;;;;;;2.22;1.00;;;19.30;67.10;;;;;;2357082;53;20999;-68
2021/08/10 02:09:11;;;;;;;2.25;0.82;;;19.20;67.20;;;;;;2582451;52;20947;-68
2021/08/10 02:11:38;;;;;;;1.83;0.85;;;19.20;67.30;;;;;;2339996;54;21032;-67
2021/08/10 02:14:04;;;;;;;3.67;0.90;;;19.20;67.40;;;;;;2556648;52;21092;-66
2021/08/10 02:16:31;;;;;;;1.62;0.70;;;19.10;67.40;;;;;;2345442;54;21475;-66
2021/08/10 02:18:57;;;;;;;1.92;0.80;;;19.10;67.40;;;;;;2355981;53;20975;-66
2021/08/10 02:21:33;;;;;;;3.22;0.98;;;19.10;67.50;;;;;;2348788;53;20926;-66
2021/08/10 02:24:04;;;;;;;3.17;0.90;;;19.10;67.30;;;;;;2363634;53;20955;-67
2021/08/10 02:26:31;;;;;;;1.85;0.85;;;19.00;67.30;;;;;;2346112;54;20931;-67
2021/08/10 02:28:57;;;;;;;2.20;0.82;;;19.00;67.40;;;;;;2582779;52;20973;-67
2021/08/10 02:31:25;;;;;;;3.35;0.88;;;18.90;67.30;;;;;;2350147;54;20967;-67
2021/08/10 02:33:51;;;;;;;2.28;1.00;;;18.90;67.50;;;;;;2345277;54;21541;-69
2021/08/10 02:36:17;;;;;;;3.10;0.98;;;18.90;67.70;;;;;;2347364;54;21009;-68
2021/08/10 02:38:44;;;;;;;3.85;1.20;;;18.90;67.90;;;;;;2350692;54;21391;-66
2021/08/10 02:41:11;;;;;;;2.75;1.00;;;18.80;68.00;;;;;;2345505;53;20978;-67
2021/08/10 02:43:40;;;;;;;2.22;0.80;;;18.80;68.10;;;;;;2352645;53;21304;-66
2021/08/10 02:46:06;;;;;;;3.08;1.05;;;18.80;68.20;;;;;;2345363;54;21398;-66
2021/08/10 02:48:35;;;;;;;2.30;1.05;;;18.80;68.20;;;;;;2586154;52;20922;-66
2021/08/10 02:51:04;;;;;;;2.17;1.00;;;18.80;68.40;;;;;;2347873;54;20983;-66
2021/08/10 02:53:31;;;;;;;2.08;0.80;;;18.80;68.20;;;;;;2350736;53;20975;-66
2021/08/10 02:56:09;;;;;;;2.83;0.90;;;18.80;68.30;;;;;;2344019;54;20995;-67
2021/08/10 02:58:38;;;;;;;2.35;0.90;;;18.80;68.10;;;;;;2377624;53;21396;-66
2021/08/10 03:01:07;;;;;;;2.33;0.70;;;18.80;68.30;;;;;;2332556;54;21018;-66
2021/08/10 03:03:33;;;;;;;2.00;0.85;;;18.80;68.30;;;;;;2509906;52;20931;-66
2021/08/10 03:06:01;;;;;;;2.33;0.98;;;18.70;68.20;;;;;;2346341;54;21018;-67
2021/08/10 03:08:30;;;;;;;1.90;0.88;;;18.70;68.90;;;;;;2582391;52;21018;-66
2021/08/10 03:10:56;;;;;;;2.72;1.00;;;18.70;68.20;;;;;;2349017;53;20962;-66
2021/08/10 03:13:24;;;;;;;2.10;0.93;;;18.70;68.20;;;;;;2425842;52;21711;-67
2021/08/10 03:15:52;;;;;;;1.98;0.93;;;18.60;68.10;;;;;;2350437;53;21086;-67
2021/08/10 03:18:20;;;;;;;2.42;0.93;;;18.60;68.30;;;;;;2586218;52;21380;-66
2021/08/10 03:20:47;;;;;;;2.87;0.95;;;18.60;68.40;;;;;;2339383;53;20957;-66
2021/08/10 03:23:17;;;;;;;2.10;0.85;;;18.60;68.40;;;;;;2582826;52;20946;-66
2021/08/10 03:25:44;;;;;;;4.12;1.30;;;18.60;68.30;;;;;;2433152;53;21014;-67
2021/08/10 03:28:11;;;;;;;2.37;0.82;;;18.60;68.30;;;;;;2339746;53;21037;-67
2021/08/10 03:30:38;;;;;;;1.55;0.80;;;18.50;68.20;;;;;;2346100;53;20942;-67
2021/08/10 03:33:05;;;;;;;1.80;0.80;;;18.50;68.20;;;;;;2574559;52;21030;-66
2021/08/10 03:35:31;;;;;;;2.33;0.70;;;18.50;68.20;;;;;;2346798;53;20958;-67
2021/08/10 03:37:58;;;;;;;2.10;1.00;;;18.50;68.30;;;;;;2343971;54;20924;-66
2021/08/10 03:40:24;;;;;;;2.60;0.93;;;18.40;68.30;;;;;;2349613;54;20964;-65
2021/08/10 03:42:51;;;;;;;2.10;0.90;;;18.40;68.40;;;;;;2586677;52;21114;-66
2021/08/10 03:45:19;;;;;;;1.98;1.00;;;18.40;68.40;;;;;;2349830;53;20948;-66
2021/08/10 03:47:47;;;;;;;3.22;1.00;;;18.40;68.50;;;;;;2558453;52;21787;-68
2021/08/10 03:50:13;;;;;;;2.95;0.90;;;18.40;68.60;;;;;;2344198;54;20978;-66
2021/08/10 03:52:40;;;;;;;2.35;0.98;;;18.40;68.70;;;;;;2390266;53;21418;-66
2021/08/10 03:55:08;;;;;;;2.15;1.02;;;18.40;68.80;;;;;;2346704;54;20938;-67
2021/08/10 03:57:34;;;;;;;2.55;0.95;;;18.30;69.10;;;;;;2578085;52;20953;-66
2021/08/10 04:00:01;;;;;;;2.17;0.93;;;18.30;68.80;;;;;;2339963;54;20910;-66
2021/08/10 04:02:29;;;;;;;2.12;1.10;;;18.30;68.90;;;;;;2458235;52;21062;-67
2021/08/10 04:04:56;;;;;;;1.90;0.85;;;18.30;68.90;;;;;;2341555;53;20930;-67
2021/08/10 04:07:27;;;;;;;2.42;0.88;;;18.30;69.00;;;;;;2584873;52;20938;-65
2021/08/10 04:09:53;;;;;;;3.03;1.40;;;18.30;69.00;;;;;;2317556;54;21026;-67
2021/08/10 04:12:20;;;;;;;1.83;0.80;;;18.30;69.10;;;;;;2339631;53;21852;-65
2021/08/10 04:14:46;;;;;;;1.90;0.80;;;18.30;69.10;;;;;;2340671;54;20989;-65
2021/08/10 04:17:13;;;;;;;1.95;0.85;;;18.30;69.10;;;;;;2586034;52;21856;-66
2021/08/10 04:19:45;;;;;;;1.98;0.98;;;18.40;69.30;;;;;;2336158;54;20976;-67
2021/08/10 04:22:12;;;;;;;2.12;0.90;;;18.30;69.30;;;;;;2341816;53;21412;-68
2021/08/10 04:24:39;;;;;;;1.80;0.80;;;18.30;69.40;;;;;;2344462;53;21089;-66
2021/08/10 04:27:05;;;;;;;2.65;1.00;;;18.30;69.50;;;;;;2585880;52;20966;-66
2021/08/10 04:29:32;;;;;;;2.08;0.90;;;18.30;69.60;;;;;;2344574;54;20926;-66
2021/08/10 04:31:58;;;;;;;1.90;0.70;;;18.40;69.80;;;;;;2334294;53;21029;-66
2021/08/10 04:34:25;;;;;;;2.08;0.95;;;18.40;69.90;;;;;;2346538;54;20965;-66
2021/08/10 04:36:54;;;;;;;2.45;0.70;;;18.40;70.00;;;;;;2348371;54;20938;-66
2021/08/10 04:39:23;;;;;;;3.70;0.85;;;18.40;70.00;;;;;;2329183;54;21012;-66
2021/08/10 04:41:49;;;;;;;3.12;0.88;;;18.50;70.20;;;;;;2459399;52;21010;-66
2021/08/10 04:44:15;;;;;;;1.65;0.85;;;18.50;70.20;;;;;;2351773;54;21503;-66
2021/08/10 04:46:42;;;;;;;3.10;0.90;;;18.50;70.30;;;;;;2334394;53;21514;-66
2021/08/10 04:49:08;;;;;;;2.15;0.88;;;18.50;70.30;;;;;;2362173;53;21041;-66
2021/08/10 04:51:35;;;;;;;2.75;1.00;;;18.60;70.40;;;;;;2330122;54;21841;-66
2021/08/10 04:54:01;;;;;;;3.05;1.20;;;18.60;70.40;;;;;;2344917;54;20926;-66
2021/08/10 04:56:27;;;;;;;2.62;1.17;;;18.70;70.50;;;;;;2467730;52;20939;-66
2021/08/10 04:58:54;;;;;;;3.17;1.90;;;18.70;70.40;;;;;;2339699;54;20937;-65
2021/08/10 05:01:20;;;;;;;3.20;1.10;;;18.70;70.30;;;;;;2341838;54;20925;-68
2021/08/10 05:03:46;;;;;;;1.65;0.90;;;18.70;70.30;;;;;;2345058;54;21006;-68
2021/08/10 05:06:14;;;;;;;2.10;1.00;;;18.70;70.40;;;;;;2351779;54;20982;-66
2021/08/10 05:08:41;;;;;;;2.55;1.02;;;18.80;70.50;;;;;;2321635;54;21023;-66
2021/08/10 05:11:11;;;;;;;2.30;1.12;;;18.80;70.50;;;;;;2333192;54;20921;-67
2021/08/10 05:13:38;;;;;;;3.05;1.17;;;18.80;70.50;;;;;;2348173;53;21521;-66
2021/08/10 05:16:04;;;;;;;2.10;1.05;;;18.80;70.60;;;;;;2341155;53;21100;-66
2021/08/10 05:18:31;;;;;;;2.42;1.20;;;18.80;70.70;;;;;;2503678;52;20932;-68
2021/08/10 05:20:58;;;;;;;2.03;0.90;;;18.80;70.70;;;;;;2331442;55;21014;-67
2021/08/10 05:23:25;;;;;;;1.52;0.73;;;18.90;70.90;;;;;;2340109;53;22024;-68
2021/08/10 05:25:54;;;;;;;2.80;0.95;;;18.90;71.00;;;;;;2343624;54;20992;-66
2021/08/10 05:28:20;;;;;;;3.33;0.90;;;19.00;71.20;;;;;;2342412;53;20936;-66
2021/08/10 05:30:47;;;;;;;2.60;1.20;;;19.00;71.30;;;;;;2343179;54;20995;-66
2021/08/10 05:33:14;;;;;;;3.75;1.05;;;19.00;71.40;;;;;;2343556;54;21410;-67
2021/08/10 05:35:41;;;;;;;2.90;1.17;;;19.10;71.60;;;;;;2354215;53;21038;-68
2021/08/10 05:38:07;;;;;;;1.95;0.90;;;19.10;71.70;;;;;;2330531;53;21022;-66
2021/08/10 05:40:35;;;;;;;3.05;0.98;;;19.20;71.80;;;;;;2325227;53;21001;-66
2021/08/10 05:43:02;;;;;;;2.90;1.33;;;19.30;71.90;;;;;;2350818;54;21091;-67
2021/08/10 05:45:29;;;;;;;2.35;1.10;;;19.30;71.90;;;;;;2340448;54;21121;-65
2021/08/10 05:47:56;;;;;;;2.30;0.95;;;19.50;72.10;;;;;;2334121;53;21047;-68
2021/08/10 05:50:22;;;;;;;2.80;1.10;;;19.40;72.00;;;;;;2422025;52;21060;-68
2021/08/10 05:52:53;;;;;;;1.70;0.88;;;19.50;72.10;;;;;;2344891;54;21018;-67
2021/08/10 05:55:19;;;;;;;2.25;1.30;;;19.60;72.10;;;;;;2521932;52;20980;-66
2021/08/10 05:57:46;;;;;;;2.80;1.00;;;19.60;72.10;;;;;;2334480;54;21378;-67
2021/08/10 06:00:13;;;;;;;2.40;1.12;;;19.70;72.10;;;;;;2344770;54;21453;-67
2021/08/10 06:02:39;;;;;;;5.35;1.87;;;19.70;72.10;;;;;;2353174;54;20978;-68
2021/08/10 06:05:06;;;;;;;1.80;0.88;;;19.80;72.10;;;;;;2344402;53;20967;-66
2021/08/10 06:07:33;;;;;;;2.10;0.80;;;19.90;72.10;;;;;;2342373;53;21034;-66
2021/08/10 06:10:03;;;;;;;2.53;0.90;;;19.90;72.10;;;;;;2329571;54;20984;-66
2021/08/10 06:12:29;;;;;;;2.12;0.98;;;20.00;72.00;;;;;;2333269;54;20943;-66
2021/08/10 06:14:56;;;;;;;1.85;0.90;;;20.00;72.10;;;;;;2323583;53;21492;-66
2021/08/10 06:17:23;;;;;;;2.45;1.00;;;20.10;72.10;;;;;;2342880;53;20960;-67
2021/08/10 06:19:53;;;;;;;2.65;1.20;;;20.10;72.10;;;;;;2350383;54;20975;-66
2021/08/10 06:22:20;;;;;;;2.03;0.90;;;20.20;72.10;;;;;;2586239;52;20966;-67
2021/08/10 06:24:46;;;;;;;2.33;0.95;;;20.30;72.40;;;;;;2321538;54;21816;-66
2021/08/10 06:27:13;;;;;;;2.92;1.08;;;20.30;72.50;;;;;;2325342;54;20958;-67
2021/08/10 06:29:43;;;;;;;2.25;1.02;;;20.40;72.60;;;;;;2589013;52;20916;-66
2021/08/10 06:32:10;;;;;;;2.70;1.00;;;20.50;72.60;;;;;;2350593;54;21661;-67
2021/08/10 06:34:36;;;;;;;2.20;1.05;;;20.60;72.70;;;;;;2335843;54;20957;-66
2021/08/10 06:37:03;;;;;;;4.25;1.45;;;20.60;72.70;;;;;;2590560;52;20968;-66
2021/08/10 06:39:33;;;;;;;3.37;1.42;;;20.80;72.90;;;;;;2347317;54;20957;-69
2021/08/10 06:42:01;;;;;;;3.20;1.10;;;20.80;72.70;;;;;;2346662;54;20998;-67
2021/08/10 06:44:27;;;;;;;2.58;1.10;;;20.90;73.00;;;;;;2341124;54;20997;-66
2021/08/10 06:46:54;;;;;;;2.60;1.10;;;21.00;73.80;;;;;;2430255;52;21708;-67
2021/08/10 06:49:20;;;;;;;2.92;1.30;;;21.10;73.30;;;;;;2590986;52;20974;-67
2021/08/10 06:51:47;;;;;;;5.10;1.30;;;21.30;73.50;;;;;;2332043;54;20945;-66
2021/08/10 06:54:14;;;;;;;3.03;1.23;;;21.40;73.30;;;;;;2343298;54;20976;-67
2021/08/10 06:56:40;;;;;;;2.60;1.25;;;21.50;73.20;;;;;;2344089;54;21028;-67
2021/08/10 06:59:06;;;;;;;3.17;1.40;;;21.60;72.90;;;;;;2359002;53;20978;-67
2021/08/10 07:01:33;;;;;;;2.60;1.08;;;21.70;72.60;;;;;;2592896;52;20937;-68
2021/08/10 07:03:59;;;;;;;2.30;1.00;;;21.80;72.50;;;;;;2343846;54;20917;-67
2021/08/10 07:06:26;;;;;;;3.25;1.20;;;21.90;72.50;;;;;;2343381;54;20925;-68
2021/08/10 07:08:54;;;;;;;2.20;1.02;;;22.00;72.40;;;;;;2343759;53;20984;-66
2021/08/10 07:11:21;;;;;;;4.65;1.52;;;22.10;72.30;;;;;;2347102;54;20958;-67
2021/08/10 07:13:47;;;;;;;2.80;1.20;;;22.10;72.00;;;;;;2347112;54;20924;-68
2021/08/10 07:16:14;;;;;;;2.47;1.12;;;22.20;71.90;;;;;;2344054;54;20929;-66
2021/08/10 07:18:41;;;;;;;2.70;1.45;;;22.30;71.80;;;;;;2343547;54;20960;-68
2021/08/10 07:21:07;;;;;;;2.78;1.20;;;22.40;71.60;;;;;;2590175;52;20924;-67
2021/08/10 07:23:33;;;;;;;2.65;1.17;;;22.40;71.40;;;;;;2468165;52;21966;-66
2021/08/10 07:26:00;;;;;;;2.78;1.12;;;22.50;71.30;;;;;;2573069;52;21500;-67
2021/08/10 07:28:26;;;;;;;3.33;1.20;;;22.50;71.20;;;;;;2346793;53;20954;-67
2021/08/10 07:30:52;;;;;;;2.62;1.10;;;22.60;71.30;;;;;;2343108;54;20988;-66
2021/08/10 07:33:18;;;;;;;3.17;1.10;;;22.60;71.20;;;;;;2343328;54;20932;-67
2021/08/10 07:35:45;;;;;;;2.67;1.23;;;22.70;71.20;;;;;;2349413;54;20906;-67
2021/08/10 07:38:13;;;;;;;4.28;1.45;;;22.80;71.10;;;;;;2326895;54;21018;-66
2021/08/10 07:40:39;;;;;;;3.50;1.60;;;22.80;70.90;;;;;;2342113;54;21043;-69
2021/08/10 07:43:05;;;;;;;3.47;1.33;;;22.90;70.70;;;;;;2389936;53;20980;-69
2021/08/10 07:45:32;;;;;;;4.28;1.60;;;22.90;70.80;;;;;;2343630;54;21079;-68
2021/08/10 07:48:02;;;;;;;3.58;1.60;;;23.00;70.70;;;;;;2376628;53;20988;-66
2021/08/10 07:50:30;;;;;;;3.33;1.20;;;23.10;70.20;;;;;;2460846;52;21397;-67
2021/08/10 07:52:56;;;;;;;2.55;1.10;;;23.10;70.40;;;;;;2343328;54;20917;-67
2021/08/10 07:55:22;;;;;;;3.00;1.30;;;23.20;70.60;;;;;;2343655;54;20992;-67
2021/08/10 07:57:49;;;;;;;3.58;1.23;;;23.20;70.50;;;;;;2344074;54;20932;-67
2021/08/10 08:00:17;;;;;;;2.72;1.30;;;23.30;71.20;;;;;;2346917;54;20919;-67
2021/08/10 08:02:43;;;;;;;4.12;1.65;;;23.40;70.20;;;;;;2335600;54;20960;-67
2021/08/10 08:05:40;;;;;;;4.05;1.58;;;23.50;69.90;;;;;;2335759;54;21036;-67
2021/08/10 08:08:06;;;;;;;2.70;1.20;;;23.60;68.10;;;;;;2339675;54;20932;-68
2021/08/10 08:10:32;;;;;;;2.85;1.33;;;23.60;69.50;;;;;;2587995;52;20931;-68
2021/08/10 08:13:11;;;;;;;3.80;1.87;;;23.70;69.60;;;;;;2350202;54;20978;-68
2021/08/10 08:15:38;;;;;;;3.58;1.37;;;23.70;69.60;;;;;;2337451;54;21008;-69
2021/08/10 08:18:22;;;;;;;3.58;1.27;;;23.80;69.50;;;;;;2350973;54;20970;-68
2021/08/10 08:20:48;;;;;;;2.80;1.50;;;23.90;68.10;;;;;;2441583;52;21342;-68
2021/08/10 08:23:15;;;;;;;3.40;1.37;;;23.90;68.80;;;;;;2343680;53;21358;-70
2021/08/10 08:25:43;;;;;;;3.35;1.60;;;24.00;68.90;;;;;;2343519;53;21007;-67
2021/08/10 08:28:10;;;;;;;2.58;1.48;;;24.00;68.80;;;;;;2343856;54;20968;-67
2021/08/10 08:30:38;;;;;;;3.28;1.33;;;24.10;69.50;;;;;;2342984;54;21012;-67
2021/08/10 08:33:08;;;;;;;2.92;1.20;;;24.10;69.30;;;;;;2349840;53;20982;-70
2021/08/10 08:35:35;;;;;;;3.05;1.33;;;24.20;69.30;;;;;;2326848;54;21355;-67
2021/08/10 08:38:01;;;;;;;3.50;1.33;;;24.30;69.20;;;;;;2342484;54;20985;-70
2021/08/10 08:40:29;;;;;;;3.15;1.40;;;24.40;69.30;;;;;;2343593;54;20980;-67
2021/08/10 08:42:56;;;;;;;3.45;1.42;;;24.40;69.10;;;;;;2343501;54;20939;-67
2021/08/10 08:45:23;;;;;;;3.92;1.58;;;24.50;68.90;;;;;;2328160;55;20967;-67
2021/08/10 08:47:51;;;;;;;3.10;1.62;;;24.60;68.90;;;;;;2346188;54;20962;-67
2021/08/10 08:50:18;;;;;;;5.45;1.40;;;24.60;68.70;;;;;;2342635;54;20915;-67
2021/08/10 08:52:49;;;;;;;3.25;1.60;;;24.70;68.80;;;;;;2349651;54;21708;-68
2021/08/10 08:55:16;;;;;;;2.90;1.40;;;24.80;68.50;;;;;;2325482;53;20945;-66
2021/08/10 08:57:42;;;;;;;2.70;1.40;;;24.80;68.30;;;;;;2351143;53;20926;-67
2021/08/10 09:00:12;;;;;;;2.58;1.25;;;24.90;68.20;;;;;;2337546;53;20925;-67
2021/08/10 09:02:38;;;;;;;3.17;1.50;;;25.00;68.10;;;;;;2347352;54;20905;-67
2021/08/10 09:05:06;;;;;;;2.35;1.27;;;25.00;68.40;;;;;;2581028;52;21017;-67
2021/08/10 09:07:32;;;;;;;3.08;1.20;;;25.10;68.50;;;;;;2341010;54;21060;-68
2021/08/10 09:10:12;;;;;;;3.20;1.20;;;25.20;68.60;;;;;;2584308;52;21532;-67
2021/08/10 09:12:50;;;;;;;2.62;1.33;;;25.20;67.50;;;;;;2343374;54;20997;-69
2021/08/10 09:15:38;;;;;;;4.15;1.45;;;25.40;68.40;;;;;;2467664;52;20980;-69
2021/08/10 09:18:13;;;;;;;3.67;1.42;;;25.50;66.60;;;;;;2342748;54;20977;-67
2021/08/10 09:20:40;;;;;;;3.92;1.30;;;25.50;68.00;;;;;;2528359;52;20996;-67
2021/08/10 09:23:07;;;;;;;3.72;1.70;;;25.60;68.20;;;;;;2346644;54;20998;-66
2021/08/10 09:25:34;;;;;;;3.78;1.50;;;25.70;68.20;;;;;;2335409;53;20954;-69
2021/08/10 09:28:04;;;;;;;3.90;1.25;;;25.80;68.10;;;;;;2326550;54;20973;-67
2021/08/10 09:30:33;;;;;;;4.03;1.50;;;25.90;67.50;;;;;;2350598;53;21443;-67
2021/08/10 09:33:03;;;;;;;2.35;1.20;;;26.00;67.80;;;;;;2348147;54;21023;-68
2021/08/10 09:35:34;;;;;;;2.37;1.15;;;26.00;67.60;;;;;;2529741;52;21377;-67
2021/08/10 09:38:18;;;;;;;4.28;1.17;;;26.10;67.20;;;;;;2561109;53;20936;-68
2021/08/10 09:40:51;;;;;;;2.40;1.30;;;26.20;66.10;;;;;;2372059;52;20964;-67
2021/08/10 09:43:35;;;;;;;2.83;1.23;;;26.30;66.90;;;;;;2345874;54;21045;-68
2021/08/10 09:46:16;;;;;;;3.28;1.40;;;26.30;65.60;;;;;;2498553;52;20909;-68
2021/08/10 09:48:53;;;;;;;2.92;1.12;;;26.40;65.30;;;;;;2342771;54;22340;-66
2021/08/10 09:51:35;;;;;;;3.25;1.52;;;26.40;65.40;;;;;;2349301;54;20982;-70
2021/08/10 09:54:03;;;;;;;3.30;1.30;;;26.50;66.20;;;;;;2331426;54;20912;-69
2021/08/10 09:56:49;;;;;;;2.92;1.33;;;26.60;66.30;;;;;;2342959;54;20981;-67
2021/08/10 09:59:16;;;;;;;3.97;1.62;;;26.60;65.30;;;;;;2343415;54;20957;-68
2021/08/10 10:01:47;;;;;;;3.15;1.37;;;26.70;66.10;;;;;;2342282;54;21013;-68
2021/08/10 10:04:21;;;;;;;3.33;1.17;;;26.70;66.40;;;;;;2343127;54;20949;-68
2021/08/10 10:06:49;;;;;;;3.30;1.25;;;26.80;66.30;;;;;;2529600;52;21037;-67
2021/08/10 10:09:15;;;;;;;3.60;1.48;;;26.80;66.10;;;;;;2340595;54;20962;-67
2021/08/10 10:11:43;;;;;;;4.12;1.37;;;26.90;66.30;;;;;;2541157;52;21002;-68
2021/08/10 10:14:11;;;;;;;2.83;1.37;;;27.00;66.10;;;;;;2342684;54;21381;-69
2021/08/10 10:16:52;;;;;;;4.12;1.65;;;27.10;65.80;;;;;;2570525;52;21383;-70
2021/08/10 10:19:20;;;;;;;3.70;1.42;;;27.20;64.10;;;;;;2350996;53;21383;-68
2021/08/10 10:21:49;;;;;;;3.60;1.35;;;27.20;65.40;;;;;;2331034;54;20953;-67
2021/08/10 10:24:15;;;;;;;2.70;1.50;;;27.20;65.20;;;;;;2353163;52;21020;-67
2021/08/10 10:26:44;;;;;;;3.10;1.27;;;27.30;65.40;;;;;;2436328;52;20929;-68
2021/08/10 10:29:11;;;;;;;3.08;1.10;;;27.40;65.60;;;;;;2323802;55;20961;-68
2021/08/10 10:31:41;;;;;;;4.50;1.25;;;27.40;65.50;;;;;;2445129;52;20980;-68
2021/08/10 10:34:12;;;;;;;6.07;1.45;;;27.50;64.90;;;;;;2563270;53;20962;-68
2021/08/10 10:36:43;;;;;;;3.12;1.30;;;27.60;64.80;;;;;;2588737;52;20988;-68
2021/08/10 10:39:09;;;;;;;3.35;1.40;;;27.70;64.50;;;;;;2348334;54;21055;-70
2021/08/10 10:41:35;;;;;;;3.28;1.25;;;27.70;65.00;;;;;;2464708;53;21050;-68
2021/08/10 10:44:06;;;;;;;3.20;1.42;;;27.80;64.90;;;;;;2345484;53;21041;-67
2021/08/10 10:46:39;;;;;;;6.25;1.67;;;27.90;64.70;;;;;;2545803;52;21014;-68
2021/08/10 10:49:09;;;;;;;3.42;1.25;;;27.90;64.00;;;;;;2542528;52;20957;-68
2021/08/10 10:51:38;;;;;;;3.00;1.33;;;28.00;64.20;;;;;;2474363;52;21080;-70
2021/08/10 10:54:23;;;;;;;2.80;1.25;;;28.10;64.80;;;;;;2589562;52;20998;-70
2021/08/10 10:56:51;;;;;;;2.70;1.20;;;28.20;63.60;;;;;;2553828;52;21027;-68
2021/08/10 10:59:38;;;;;;;2.67;1.10;;;28.20;64.90;;;;;;2347079;53;20947;-65
2021/08/10 11:02:11;;;;;;;2.92;1.30;;;28.30;62.90;;;;;;2590821;52;20989;-66
2021/08/10 11:04:38;;;;;;;3.62;1.50;;;28.40;63.60;;;;;;2502831;52;21777;-67
2021/08/10 11:07:35;;;;;;;3.67;1.45;;;28.50;64.20;;;;;;2351966;54;20962;-65
2021/08/10 11:10:01;;;;;;;2.80;1.50;;;28.60;62.00;;;;;;2579096;52;20946;-65
2021/08/10 11:12:42;;;;;;;2.87;1.30;;;28.70;64.10;;;;;;2589015;52;21057;-65
2021/08/10 11:15:18;;;;;;;3.80;1.50;;;28.80;62.20;;;;;;2342786;54;20965;-66
2021/08/10 11:18:25;;;;;;;4.15;1.20;;;28.80;62.70;;;;;;2522976;53;20956;-65
2021/08/10 11:21:26;;;;;;;3.10;1.15;;;29.00;61.90;;;;;;2343683;54;21060;-67
2021/08/10 11:23:53;;;;;;;1.92;1.00;;;29.00;61.90;;;;;;2587775;52;21019;-68
2021/08/10 11:27:27;;;;;;;3.67;1.52;;;29.10;63.60;;;;;;2347510;54;20970;-66
2021/08/10 11:29:55;;;;;;;2.55;1.33;;;29.10;61.00;;;;;;2349845;54;20978;-68
2021/08/10 11:35:52;;;;;;;2.95;1.20;;;29.20;62.20;;;;;;2381649;52;20973;-70
2021/08/10 11:38:19;;;;;;;4.53;1.10;;;29.30;61.60;;;;;;2369632;54;20969;-66
2021/08/10 11:41:02;;;;;;;2.70;1.20;;;29.30;63.00;;;;;;2347519;53;20933;-67
2021/08/10 11:43:48;;;;;;;2.60;1.15;;;29.30;60.60;;;;;;2350481;54;20934;-68
2021/08/10 11:46:18;;;;;;;2.80;1.30;;;29.40;60.50;;;;;;2583248;52;20976;-65
2021/08/10 11:48:52;;;;;;;2.60;1.27;;;29.40;61.50;;;;;;2353404;53;21838;-66
2021/08/10 11:51:30;;;;;;;2.03;1.10;;;29.40;61.90;;;;;;2347179;53;20998;-68
2021/08/10 11:54:05;;;;;;;2.83;1.27;;;29.50;60.70;;;;;;2586002;52;20937;-65
2021/08/10 11:56:34;;;;;;;3.03;1.00;;;29.50;61.60;;;;;;2338263;54;21449;-68
2021/08/10 11:59:05;;;;;;;2.10;0.98;;;29.60;61.00;;;;;;2576506;52;21445;-65
2021/08/10 12:01:36;;;;;;;2.78;1.17;;;29.60;60.20;;;;;;2343631;54;21421;-66
2021/08/10 12:04:19;;;;;;;4.68;1.40;;;29.70;59.10;;;;;;2343622;54;20928;-66
2021/08/10 12:06:46;;;;;;;2.80;1.35;;;29.60;57.90;;;;;;2343671;53;20968;-66
2021/08/10 12:09:25;;;;;;;2.50;1.00;;;29.60;59.40;;;;;;2407583;52;21612;-65
2021/08/10 12:11:56;;;;;;;2.90;1.20;;;29.60;59.50;;;;;;2562754;53;20965;-69
2021/08/10 12:14:30;;;;;;;2.60;1.08;;;29.70;59.50;;;;;;2563055;53;20953;-69
2021/08/10 12:17:15;;;;;;;2.37;1.12;;;29.70;59.00;;;;;;2350146;54;21010;-65
2021/08/10 12:19:51;;;;;;;2.20;1.20;;;29.70;58.10;;;;;;2346579;54;20937;-66
2021/08/10 12:22:24;;;;;;;2.67;1.05;;;29.70;58.70;;;;;;2589285;52;21048;-65
2021/08/10 12:24:55;;;;;;;2.22;1.00;;;29.70;59.50;;;;;;2347616;54;21027;-65
2021/08/10 12:27:30;;;;;;;2.28;1.10;;;29.80;59.90;;;;;;2336704;54;20929;-65
2021/08/10 12:30:03;;;;;;;3.10;1.17;;;29.80;59.30;;;;;;2590542;52;20933;-66
2021/08/10 12:32:32;;;;;;;2.62;1.27;;;29.80;59.90;;;;;;2343795;54;20963;-66
2021/08/10 12:35:17;;;;;;;2.65;1.20;;;29.80;59.80;;;;;;2590216;52;21958;-66
2021/08/10 12:37:43;;;;;;;2.20;1.00;;;29.80;57.80;;;;;;2344552;54;21465;-65
2021/08/10 12:40:17;;;;;;;2.35;0.90;;;29.80;59.30;;;;;;2571294;52;21487;-69
2021/08/10 12:42:43;;;;;;;2.95;1.00;;;29.80;58.40;;;;;;2334229;54;20971;-69
2021/08/10 12:45:10;;;;;;;2.40;1.05;;;29.80;59.40;;;;;;2333140;54;20989;-66
2021/08/10 12:47:38;;;;;;;3.00;1.20;;;29.80;59.30;;;;;;2474418;53;20948;-66
2021/08/10 12:50:28;;;;;;;2.40;1.10;;;29.80;59.20;;;;;;2528304;52;20956;-68
2021/08/10 12:52:54;;;;;;;3.25;1.40;;;29.80;57.70;;;;;;2346033;54;20948;-69
2021/08/10 12:55:22;;;;;;;3.05;1.30;;;29.80;59.30;;;;;;2351242;53;21590;-65
2021/08/10 12:58:09;;;;;;;6.85;1.27;;;29.80;59.10;;;;;;2338897;54;20985;-67
2021/08/10 13:00:42;;;;;;;2.53;1.17;;;29.70;57.80;;;;;;2429931;52;21896;-67
2021/08/10 13:03:23;;;;;;;4.18;1.10;;;29.70;58.80;;;;;;2338650;54;20957;-67
2021/08/10 13:05:50;;;;;;;2.35;1.00;;;29.70;57.30;;;;;;2567174;52;20927;-63
2021/08/10 13:08:16;;;;;;;2.92;1.30;;;29.60;58.80;;;;;;2562201;52;20969;-68
2021/08/10 13:10:43;;;;;;;2.78;1.20;;;29.60;59.00;;;;;;2422311;52;20958;-66